sensor_id;sensor_type;location;lat;lon;timestamp;pressure;altitude;pressure_sealevel;temperature;humidity
30339;BME280;795;49.296;11.348;2023-03-21T00:01:57;96556.13;;;6.14;100.00
30339;BME280;795;49.296;11.348;2023-03-21T00:04:26;96496.00;;;5.81;100.00
30339;BME280;795;49.296;11.348;2023-03-21T00:07:03;96573.41;;;6.29;100.00
30339;BME280;795;49.296;11.348;2023-03-21T00:09:30;96586.88;;;6.37;100.00
30339;BME280;795;49.296;11.348;2023-03-21T00:11:57;96479.22;;;5.81;100.00
30339;BME280;795;49.296;11.348;2023-03-21T00:14:28;96479.25;;;5.90;100.00
30339;BME280;795;49.296;11.348;2023-03-21T00:16:57;96468.41;;;5.82;100.00
30339;BME280;795;49.296;11.348;2023-03-21T00:19:24;96534.81;;;6.14;100.00
30339;BME280;795;49.296;11.348;2023-03-21T00:21:52;96538.06;;;6.27;100.00
30339;BME280;795;49.296;11.348;2023-03-21T00:24:34;96565.56;;;6.47;100.00
30339;BME280;795;49.296;11.348;2023-03-21T00:27:02;96533.00;;;6.15;100.00
30339;BME280;795;49.296;11.348;2023-03-21T00:29:49;96561.50;;;6.43;100.00
30339;BME280;795;49.296;11.348;2023-03-21T00:32:18;96507.44;;;5.93;100.00
30339;BME280;795;49.296;11.348;2023-03-21T00:34:46;96526.25;;;6.11;100.00
30339;BME280;795;49.296;11.348;2023-03-21T00:37:33;96497.59;;;5.93;100.00
30339;BME280;795;49.296;11.348;2023-03-21T00:40:00;96495.78;;;6.03;100.00
30339;BME280;795;49.296;11.348;2023-03-21T00:42:27;96543.66;;;6.34;100.00
30339;BME280;795;49.296;11.348;2023-03-21T00:44:54;96513.91;;;6.19;100.00
30339;BME280;795;49.296;11.348;2023-03-21T00:47:21;96564.16;;;6.52;100.00
30339;BME280;795;49.296;11.348;2023-03-21T00:49:51;96477.72;;;5.97;100.00
30339;BME280;795;49.296;11.348;2023-03-21T00:52:18;96468.03;;;5.96;100.00
30339;BME280;795;49.296;11.348;2023-03-21T00:55:05;96550.28;;;6.58;100.00
30339;BME280;795;49.296;11.348;2023-03-21T00:57:33;96509.44;;;6.39;100.00
30339;BME280;795;49.296;11.348;2023-03-21T01:00:09;96521.63;;;6.51;100.00
30339;BME280;795;49.296;11.348;2023-03-21T01:02:38;96493.44;;;6.29;100.00
30339;BME280;795;49.296;11.348;2023-03-21T01:05:10;96531.88;;;6.55;100.00
30339;BME280;795;49.296;11.348;2023-03-21T01:07:37;96512.09;;;6.39;100.00
30339;BME280;795;49.296;11.348;2023-03-21T01:10:05;96463.00;;;6.03;100.00
30339;BME280;795;49.296;11.348;2023-03-21T01:12:32;96426.22;;;5.78;100.00
30339;BME280;795;49.296;11.348;2023-03-21T01:14:59;96505.22;;;6.27;100.00
30339;BME280;795;49.296;11.348;2023-03-21T01:17:26;96507.59;;;6.20;100.00
30339;BME280;795;49.296;11.348;2023-03-21T01:19:53;96500.31;;;6.22;100.00
30339;BME280;795;49.296;11.348;2023-03-21T01:22:20;96501.72;;;6.17;100.00
30339;BME280;795;49.296;11.348;2023-03-21T01:24:47;96499.19;;;6.15;100.00
30339;BME280;795;49.296;11.348;2023-03-21T01:27:34;96512.78;;;6.12;100.00
30339;BME280;795;49.296;11.348;2023-03-21T01:30:03;96426.72;;;5.53;100.00
30339;BME280;795;49.296;11.348;2023-03-21T01:32:43;96519.66;;;5.95;100.00
30339;BME280;795;49.296;11.348;2023-03-21T01:35:10;96529.06;;;6.09;100.00
30339;BME280;795;49.296;11.348;2023-03-21T01:37:37;96527.66;;;6.05;100.00
30339;BME280;795;49.296;11.348;2023-03-21T01:40:05;96535.06;;;6.01;100.00
30339;BME280;795;49.296;11.348;2023-03-21T01:42:34;96451.69;;;5.52;100.00
30339;BME280;795;49.296;11.348;2023-03-21T01:48:13;96510.16;;;5.72;100.00
30339;BME280;795;49.296;11.348;2023-03-21T01:50:42;96530.53;;;5.83;100.00
30339;BME280;795;49.296;11.348;2023-03-21T01:53:10;96496.81;;;5.53;100.00
30339;BME280;795;49.296;11.348;2023-03-21T01:55:39;96495.84;;;5.54;100.00
30339;BME280;795;49.296;11.348;2023-03-21T01:58:10;96443.22;;;5.27;100.00
30339;BME280;795;49.296;11.348;2023-03-21T02:00:38;96460.84;;;5.28;100.00
30339;BME280;795;49.296;11.348;2023-03-21T02:03:10;96457.91;;;5.22;100.00
30339;BME280;795;49.296;11.348;2023-03-21T02:06:08;96496.56;;;5.66;100.00
30339;BME280;795;49.296;11.348;2023-03-21T02:08:37;96448.69;;;5.35;100.00
30339;BME280;795;49.296;11.348;2023-03-21T02:11:07;96513.00;;;5.80;100.00
30339;BME280;795;49.296;11.348;2023-03-21T02:13:36;96503.78;;;5.84;100.00
30339;BME280;795;49.296;11.348;2023-03-21T02:17:00;96462.22;;;5.72;100.00
30339;BME280;795;49.296;11.348;2023-03-21T02:28:25;96497.53;;;5.65;100.00
30339;BME280;795;49.296;11.348;2023-03-21T02:34:40;96467.06;;;5.38;100.00
30339;BME280;795;49.296;11.348;2023-03-21T02:38:02;96494.56;;;5.58;100.00
30339;BME280;795;49.296;11.348;2023-03-21T02:40:51;96461.47;;;5.42;100.00
30339;BME280;795;49.296;11.348;2023-03-21T02:43:44;96504.69;;;5.64;100.00
30339;BME280;795;49.296;11.348;2023-03-21T02:46:23;96483.75;;;5.50;100.00
30339;BME280;795;49.296;11.348;2023-03-21T02:49:29;96503.53;;;5.57;100.00
30339;BME280;795;49.296;11.348;2023-03-21T02:52:01;96393.66;;;4.87;100.00
30339;BME280;795;49.296;11.348;2023-03-21T02:54:48;96443.94;;;4.99;100.00
30339;BME280;795;49.296;11.348;2023-03-21T02:57:20;96505.56;;;5.25;100.00
30339;BME280;795;49.296;11.348;2023-03-21T02:59:49;96485.38;;;5.22;100.00
30339;BME280;795;49.296;11.348;2023-03-21T03:02:28;96473.00;;;5.12;100.00
30339;BME280;795;49.296;11.348;2023-03-21T03:04:56;96464.03;;;5.13;100.00
30339;BME280;795;49.296;11.348;2023-03-21T03:26:09;96487.44;;;5.59;100.00
30339;BME280;795;49.296;11.348;2023-03-21T03:28:45;96439.13;;;5.23;100.00
30339;BME280;795;49.296;11.348;2023-03-21T03:31:22;96423.56;;;5.19;100.00
30339;BME280;795;49.296;11.348;2023-03-21T03:34:02;96424.34;;;5.40;100.00
30339;BME280;795;49.296;11.348;2023-03-21T03:36:41;96487.63;;;5.76;100.00
30339;BME280;795;49.296;11.348;2023-03-21T03:39:12;96496.63;;;5.85;100.00
30339;BME280;795;49.296;11.348;2023-03-21T03:41:57;96489.03;;;5.80;100.00
30339;BME280;795;49.296;11.348;2023-03-21T03:44:44;96432.91;;;5.63;100.00
30339;BME280;795;49.296;11.348;2023-03-21T03:47:32;96437.97;;;5.75;100.00
30339;BME280;795;49.296;11.348;2023-03-21T03:50:43;96451.91;;;5.88;100.00
30339;BME280;795;49.296;11.348;2023-03-21T03:53:37;96481.50;;;5.95;100.00
30339;BME280;795;49.296;11.348;2023-03-21T03:56:11;96484.16;;;5.85;100.00
30339;BME280;795;49.296;11.348;2023-03-21T03:58:39;96449.31;;;5.58;100.00
30339;BME280;795;49.296;11.348;2023-03-21T04:01:12;96483.53;;;5.82;100.00
30339;BME280;795;49.296;11.348;2023-03-21T04:03:44;96481.56;;;5.84;100.00
30339;BME280;795;49.296;11.348;2023-03-21T04:06:18;96477.94;;;5.75;100.00
30339;BME280;795;49.296;11.348;2023-03-21T04:08:45;96481.25;;;5.58;100.00
30339;BME280;795;49.296;11.348;2023-03-21T04:11:14;96438.19;;;5.34;100.00
30339;BME280;795;49.296;11.348;2023-03-21T04:13:41;96474.38;;;5.56;100.00
30339;BME280;795;49.296;11.348;2023-03-21T04:16:10;96485.34;;;5.72;100.00
30339;BME280;795;49.296;11.348;2023-03-21T04:18:40;96481.72;;;5.82;100.00
30339;BME280;795;49.296;11.348;2023-03-21T04:21:10;96478.09;;;5.83;100.00
30339;BME280;795;49.296;11.348;2023-03-21T04:23:40;96473.16;;;5.79;100.00
30339;BME280;795;49.296;11.348;2023-03-21T04:26:08;96426.72;;;5.43;100.00
30339;BME280;795;49.296;11.348;2023-03-21T04:28:35;96411.75;;;5.52;100.00
30339;BME280;795;49.296;11.348;2023-03-21T04:31:07;96474.72;;;5.81;100.00
30339;BME280;795;49.296;11.348;2023-03-21T04:33:51;96422.22;;;5.34;100.00
30339;BME280;795;49.296;11.348;2023-03-21T04:36:18;96452.09;;;5.38;100.00
30339;BME280;795;49.296;11.348;2023-03-21T04:38:59;96487.19;;;5.62;100.00
30339;BME280;795;49.296;11.348;2023-03-21T04:41:30;96471.59;;;5.67;100.00
30339;BME280;795;49.296;11.348;2023-03-21T04:43:57;96445.94;;;5.47;100.00
30339;BME280;795;49.296;11.348;2023-03-21T04:46:24;96426.56;;;5.25;100.00
30339;BME280;795;49.296;11.348;2023-03-21T04:48:51;96481.41;;;5.57;100.00
30339;BME280;795;49.296;11.348;2023-03-21T04:51:18;96457.41;;;5.38;100.00
30339;BME280;795;49.296;11.348;2023-03-21T04:53:45;96481.97;;;5.70;100.00
30339;BME280;795;49.296;11.348;2023-03-21T04:56:15;96431.63;;;5.48;100.00
30339;BME280;795;49.296;11.348;2023-03-21T04:58:42;96402.63;;;5.35;100.00
30339;BME280;795;49.296;11.348;2023-03-21T05:01:09;96478.75;;;5.57;100.00
30339;BME280;795;49.296;11.348;2023-03-21T05:03:40;96458.22;;;5.38;100.00
30339;BME280;795;49.296;11.348;2023-03-21T05:06:08;96425.09;;;5.12;100.00
30339;BME280;795;49.296;11.348;2023-03-21T05:08:36;96424.97;;;5.13;100.00
30339;BME280;795;49.296;11.348;2023-03-21T05:11:04;96449.75;;;5.14;100.00
30339;BME280;795;49.296;11.348;2023-03-21T05:13:31;96440.84;;;4.94;100.00
30339;BME280;795;49.296;11.348;2023-03-21T05:15:58;96426.97;;;4.60;100.00
30339;BME280;795;49.296;11.348;2023-03-21T05:18:25;96487.56;;;4.87;100.00
30339;BME280;795;49.296;11.348;2023-03-21T05:20:52;96491.09;;;4.88;100.00
30339;BME280;795;49.296;11.348;2023-03-21T05:23:23;96448.88;;;4.74;100.00
30339;BME280;795;49.296;11.348;2023-03-21T05:25:50;96442.47;;;4.76;100.00
30339;BME280;795;49.296;11.348;2023-03-21T05:28:17;96468.13;;;4.87;100.00
30339;BME280;795;49.296;11.348;2023-03-21T05:30:46;96491.78;;;4.90;100.00
30339;BME280;795;49.296;11.348;2023-03-21T05:33:13;96475.06;;;4.78;100.00
30339;BME280;795;49.296;11.348;2023-03-21T05:35:40;96390.31;;;4.34;100.00
30339;BME280;795;49.296;11.348;2023-03-21T05:38:07;96483.28;;;4.96;100.00
30339;BME280;795;49.296;11.348;2023-03-21T05:40:34;96504.13;;;5.21;100.00
30339;BME280;795;49.296;11.348;2023-03-21T05:43:01;96487.59;;;5.17;100.00
30339;BME280;795;49.296;11.348;2023-03-21T05:45:28;96488.72;;;5.24;100.00
30339;BME280;795;49.296;11.348;2023-03-21T05:47:54;96465.72;;;5.14;100.00
30339;BME280;795;49.296;11.348;2023-03-21T05:50:22;96483.19;;;5.37;100.00
30339;BME280;795;49.296;11.348;2023-03-21T05:52:48;96456.09;;;5.22;100.00
30339;BME280;795;49.296;11.348;2023-03-21T05:55:16;96495.22;;;5.41;100.00
30339;BME280;795;49.296;11.348;2023-03-21T05:57:43;96470.28;;;5.32;100.00
30339;BME280;795;49.296;11.348;2023-03-21T06:00:10;96474.50;;;5.35;100.00
30339;BME280;795;49.296;11.348;2023-03-21T06:02:37;96450.13;;;5.40;100.00
30339;BME280;795;49.296;11.348;2023-03-21T06:05:06;96500.56;;;5.90;100.00
30339;BME280;795;49.296;11.348;2023-03-21T06:07:33;96494.00;;;6.14;100.00
30339;BME280;795;49.296;11.348;2023-03-21T06:10:02;96423.72;;;5.95;100.00
30339;BME280;795;49.296;11.348;2023-03-21T06:12:29;96389.53;;;5.91;100.00
30339;BME280;795;49.296;11.348;2023-03-21T06:14:56;96445.97;;;6.42;100.00
30339;BME280;795;49.296;11.348;2023-03-21T06:17:23;96480.16;;;6.85;100.00
30339;BME280;795;49.296;11.348;2023-03-21T06:19:50;96484.59;;;7.04;100.00
30339;BME280;795;49.296;11.348;2023-03-21T06:22:17;96403.13;;;6.63;100.00
30339;BME280;795;49.296;11.348;2023-03-21T06:24:44;96478.56;;;7.39;100.00
30339;BME280;795;49.296;11.348;2023-03-21T06:27:11;96431.94;;;7.33;100.00
30339;BME280;795;49.296;11.348;2023-03-21T06:29:38;96460.16;;;7.63;100.00
30339;BME280;795;49.296;11.348;2023-03-21T06:32:05;96455.00;;;7.79;100.00
30339;BME280;795;49.296;11.348;2023-03-21T06:34:33;96426.97;;;7.65;100.00
30339;BME280;795;49.296;11.348;2023-03-21T06:37:00;96436.22;;;7.88;100.00
30339;BME280;795;49.296;11.348;2023-03-21T06:39:27;96455.31;;;8.11;100.00
30339;BME280;795;49.296;11.348;2023-03-21T06:41:54;96483.78;;;8.47;100.00
30339;BME280;795;49.296;11.348;2023-03-21T06:44:21;96488.03;;;8.58;100.00
30339;BME280;795;49.296;11.348;2023-03-21T06:46:49;96488.38;;;8.81;100.00
30339;BME280;795;49.296;11.348;2023-03-21T06:49:17;96480.44;;;8.97;100.00
30339;BME280;795;49.296;11.348;2023-03-21T06:51:44;96436.56;;;8.64;100.00
30339;BME280;795;49.296;11.348;2023-03-21T06:54:11;96414.94;;;8.57;100.00
30339;BME280;795;49.296;11.348;2023-03-21T06:56:40;96427.44;;;9.00;100.00
30339;BME280;795;49.296;11.348;2023-03-21T06:59:07;96481.25;;;9.49;100.00
30339;BME280;795;49.296;11.348;2023-03-21T07:01:34;96432.94;;;9.32;100.00
30339;BME280;795;49.296;11.348;2023-03-21T07:04:01;96440.88;;;9.50;100.00
30339;BME280;795;49.296;11.348;2023-03-21T07:06:28;96439.53;;;9.46;100.00
30339;BME280;795;49.296;11.348;2023-03-21T07:08:56;96440.25;;;9.56;100.00
30339;BME280;795;49.296;11.348;2023-03-21T07:11:24;96478.41;;;9.92;100.00
30339;BME280;795;49.296;11.348;2023-03-21T07:13:51;96401.72;;;9.49;100.00
30339;BME280;795;49.296;11.348;2023-03-21T07:16:19;96441.97;;;9.65;100.00
30339;BME280;795;49.296;11.348;2023-03-21T07:18:47;96455.91;;;9.77;100.00
30339;BME280;795;49.296;11.348;2023-03-21T07:21:14;96426.19;;;9.54;100.00
30339;BME280;795;49.296;11.348;2023-03-21T07:23:42;96400.19;;;9.55;100.00
30339;BME280;795;49.296;11.348;2023-03-21T07:26:09;96387.69;;;9.79;100.00
30339;BME280;795;49.296;11.348;2023-03-21T07:28:36;96467.28;;;10.29;100.00
30339;BME280;795;49.296;11.348;2023-03-21T07:31:06;96411.53;;;9.90;100.00
30339;BME280;795;49.296;11.348;2023-03-21T07:33:34;96386.00;;;9.62;100.00
30339;BME280;795;49.296;11.348;2023-03-21T07:36:01;96483.41;;;10.45;100.00
30339;BME280;795;49.296;11.348;2023-03-21T07:38:28;96390.16;;;10.15;100.00
30339;BME280;795;49.296;11.348;2023-03-21T07:40:59;96458.25;;;10.46;100.00
30339;BME280;795;49.296;11.348;2023-03-21T07:43:26;96374.31;;;9.95;100.00
30339;BME280;795;49.296;11.348;2023-03-21T07:45:58;96485.22;;;10.44;100.00
30339;BME280;795;49.296;11.348;2023-03-21T07:48:25;96457.72;;;10.83;100.00
30339;BME280;795;49.296;11.348;2023-03-21T07:50:53;96490.94;;;11.06;100.00
30339;BME280;795;49.296;11.348;2023-03-21T07:53:20;96434.06;;;10.78;99.74
30339;BME280;795;49.296;11.348;2023-03-21T07:55:54;96415.25;;;10.86;100.00
30339;BME280;795;49.296;11.348;2023-03-21T07:58:24;96466.44;;;12.03;97.36
30339;BME280;795;49.296;11.348;2023-03-21T08:00:52;96423.91;;;13.03;85.15
30339;BME280;795;49.296;11.348;2023-03-21T08:03:19;96480.19;;;14.59;75.15
30339;BME280;795;49.296;11.348;2023-03-21T08:05:46;96487.16;;;15.38;69.11
30339;BME280;795;49.296;11.348;2023-03-21T08:08:13;96490.06;;;16.39;61.07
30339;BME280;795;49.296;11.348;2023-03-21T08:10:44;96490.63;;;16.82;55.73
30339;BME280;795;49.296;11.348;2023-03-21T08:13:11;96425.13;;;16.05;57.28
30339;BME280;795;49.296;11.348;2023-03-21T08:15:38;96433.50;;;15.42;56.02
30339;BME280;795;49.296;11.348;2023-03-21T08:18:09;96437.03;;;15.42;57.70
30339;BME280;795;49.296;11.348;2023-03-21T08:20:37;96417.50;;;14.42;58.24
30339;BME280;795;49.296;11.348;2023-03-21T08:23:04;96430.31;;;13.40;60.79
30339;BME280;795;49.296;11.348;2023-03-21T08:25:31;96455.50;;;13.61;60.38
30339;BME280;795;49.296;11.348;2023-03-21T08:27:58;96458.47;;;13.66;62.22
30339;BME280;795;49.296;11.348;2023-03-21T08:30:28;96399.88;;;14.11;57.55
30339;BME280;795;49.296;11.348;2023-03-21T08:32:57;96458.50;;;15.16;55.73
30339;BME280;795;49.296;11.348;2023-03-21T08:35:29;96455.09;;;15.35;52.11
30339;BME280;795;49.296;11.348;2023-03-21T08:37:57;96471.47;;;15.27;53.86
30339;BME280;795;49.296;11.348;2023-03-21T08:40:24;96458.53;;;15.78;51.89
30339;BME280;795;49.296;11.348;2023-03-21T08:42:51;96477.53;;;16.38;51.51
30339;BME280;795;49.296;11.348;2023-03-21T08:45:18;96452.88;;;15.73;51.29
30339;BME280;795;49.296;11.348;2023-03-21T08:47:46;96471.59;;;14.91;52.82
30339;BME280;795;49.296;11.348;2023-03-21T08:50:19;96475.81;;;14.37;53.71
30339;BME280;795;49.296;11.348;2023-03-21T08:52:48;96465.41;;;14.34;53.21
30339;BME280;795;49.296;11.348;2023-03-21T08:55:17;96466.56;;;14.46;53.47
30339;BME280;795;49.296;11.348;2023-03-21T08:57:45;96463.47;;;14.49;53.54
30339;BME280;795;49.296;11.348;2023-03-21T09:03:42;96410.72;;;14.32;53.06
30339;BME280;795;49.296;11.348;2023-03-21T09:06:10;96475.63;;;15.02;53.60
30339;BME280;795;49.296;11.348;2023-03-21T09:08:40;96465.63;;;15.51;51.63
30339;BME280;795;49.296;11.348;2023-03-21T09:11:09;96455.63;;;16.33;49.88
30339;BME280;795;49.296;11.348;2023-03-21T09:13:36;96435.59;;;16.28;49.08
30339;BME280;795;49.296;11.348;2023-03-21T09:16:03;96431.38;;;16.79;48.57
30339;BME280;795;49.296;11.348;2023-03-21T09:18:30;96426.38;;;17.29;47.21
30339;BME280;795;49.296;11.348;2023-03-21T09:21:17;96407.59;;;16.75;46.78
30339;BME280;795;49.296;11.348;2023-03-21T09:23:45;96449.72;;;16.84;48.07
30339;BME280;795;49.296;11.348;2023-03-21T09:26:18;96436.53;;;16.54;47.96
30339;BME280;795;49.296;11.348;2023-03-21T09:28:46;96470.03;;;17.53;47.55
30339;BME280;795;49.296;11.348;2023-03-21T09:31:15;96464.53;;;17.86;45.57
30339;BME280;795;49.296;11.348;2023-03-21T09:33:52;96458.72;;;17.56;45.67
30339;BME280;795;49.296;11.348;2023-03-21T09:36:20;96397.69;;;18.29;44.04
30339;BME280;795;49.296;11.348;2023-03-21T09:38:51;96400.06;;;18.13;43.46
30339;BME280;795;49.296;11.348;2023-03-21T09:41:53;96461.66;;;18.76;43.87
30339;BME280;795;49.296;11.348;2023-03-21T09:45:01;96468.41;;;18.16;43.63
30339;BME280;795;49.296;11.348;2023-03-21T09:47:45;96458.41;;;18.61;42.91
30339;BME280;795;49.296;11.348;2023-03-21T09:53:21;96412.47;;;19.95;40.85
30339;BME280;795;49.296;11.348;2023-03-21T09:55:50;96413.03;;;19.42;41.36
30339;BME280;795;49.296;11.348;2023-03-21T09:58:48;96409.84;;;19.20;41.73
30339;BME280;795;49.296;11.348;2023-03-21T10:04:00;96392.31;;;20.14;39.67
30339;BME280;795;49.296;11.348;2023-03-21T10:06:29;96431.06;;;19.79;38.56
30339;BME280;795;49.296;11.348;2023-03-21T10:09:23;96441.53;;;19.40;40.54
30339;BME280;795;49.296;11.348;2023-03-21T10:12:04;96416.19;;;20.00;39.38
30339;BME280;795;49.296;11.348;2023-03-21T10:14:45;96358.31;;;20.34;37.62
30339;BME280;795;49.296;11.348;2023-03-21T10:17:35;96405.91;;;20.80;37.11
30339;BME280;795;49.296;11.348;2023-03-21T10:20:24;96429.72;;;20.07;38.56
30339;BME280;795;49.296;11.348;2023-03-21T10:22:55;96396.56;;;20.28;38.47
30339;BME280;795;49.296;11.348;2023-03-21T10:28:01;96341.06;;;20.04;37.12
30339;BME280;795;49.296;11.348;2023-03-21T10:30:55;96410.31;;;20.51;36.98
30339;BME280;795;49.296;11.348;2023-03-21T10:33:33;96415.63;;;21.17;35.67
30339;BME280;795;49.296;11.348;2023-03-21T10:36:10;96379.63;;;20.97;36.30
30339;BME280;795;49.296;11.348;2023-03-21T10:38:49;96403.59;;;20.95;36.88
30339;BME280;795;49.296;11.348;2023-03-21T10:41:18;96333.72;;;20.64;37.25
30339;BME280;795;49.296;11.348;2023-03-21T10:44:07;96374.31;;;21.83;35.30
30339;BME280;795;49.296;11.348;2023-03-21T10:46:34;96343.53;;;21.99;36.10
30339;BME280;795;49.296;11.348;2023-03-21T10:49:02;96381.13;;;21.57;35.17
30339;BME280;795;49.296;11.348;2023-03-21T10:51:37;96395.94;;;21.61;35.72
30339;BME280;795;49.296;11.348;2023-03-21T10:54:13;96399.34;;;22.15;35.08
30339;BME280;795;49.296;11.348;2023-03-21T10:57:07;96282.47;;;21.19;35.61
30339;BME280;795;49.296;11.348;2023-03-21T10:59:59;96329.72;;;22.06;34.65
30339;BME280;795;49.296;11.348;2023-03-21T11:02:36;96374.72;;;22.66;35.15
30339;BME280;795;49.296;11.348;2023-03-21T11:05:20;96381.97;;;22.89;34.74
30339;BME280;795;49.296;11.348;2023-03-21T11:08:13;96360.06;;;21.93;36.04
30339;BME280;795;49.296;11.348;2023-03-21T11:11:03;96360.63;;;22.06;36.01
30339;BME280;795;49.296;11.348;2023-03-21T11:13:40;96382.50;;;22.46;35.62
30339;BME280;795;49.296;11.348;2023-03-21T11:16:30;96368.06;;;22.22;35.50
30339;BME280;795;49.296;11.348;2023-03-21T11:19:17;96358.28;;;22.66;34.39
30339;BME280;795;49.296;11.348;2023-03-21T11:21:46;96382.59;;;22.79;35.17
30339;BME280;795;49.296;11.348;2023-03-21T11:24:17;96383.28;;;24.94;32.72
30339;BME280;795;49.296;11.348;2023-03-21T11:26:48;96316.41;;;22.66;34.85
30339;BME280;795;49.296;11.348;2023-03-21T11:29:28;96372.84;;;22.83;35.13
30339;BME280;795;49.296;11.348;2023-03-21T11:32:19;96343.66;;;23.05;36.11
30339;BME280;795;49.296;11.348;2023-03-21T11:34:55;96324.41;;;23.72;34.67
30339;BME280;795;49.296;11.348;2023-03-21T11:37:36;96363.78;;;23.83;35.71
30339;BME280;795;49.296;11.348;2023-03-21T11:43:49;96351.13;;;22.09;38.05
30339;BME280;795;49.296;11.348;2023-03-21T11:46:29;96295.25;;;21.30;39.10
30339;BME280;795;49.296;11.348;2023-03-21T11:48:59;96242.47;;;20.25;39.74
30339;BME280;795;49.296;11.348;2023-03-21T11:52:11;96289.88;;;21.58;39.11
30339;BME280;795;49.296;11.348;2023-03-21T11:55:22;96316.41;;;21.35;38.88
30339;BME280;795;49.296;11.348;2023-03-21T11:58:35;96335.44;;;22.32;36.53
30339;BME280;795;49.296;11.348;2023-03-21T12:04:51;96334.31;;;22.17;37.42
30339;BME280;795;49.296;11.348;2023-03-21T12:07:37;96326.13;;;22.90;36.47
30339;BME280;795;49.296;11.348;2023-03-21T12:20:54;96311.53;;;19.71;43.29
30339;BME280;795;49.296;11.348;2023-03-21T12:24:14;96307.31;;;21.69;40.23
30339;BME280;795;49.296;11.348;2023-03-21T12:33:07;96252.91;;;23.19;36.21
30339;BME280;795;49.296;11.348;2023-03-21T12:36:10;96303.03;;;23.52;36.53
30339;BME280;795;49.296;11.348;2023-03-21T12:42:10;96304.34;;;24.80;35.03
30339;BME280;795;49.296;11.348;2023-03-21T12:45:26;96260.84;;;24.18;35.74
30339;BME280;795;49.296;11.348;2023-03-21T12:48:45;96296.09;;;24.53;34.65
30339;BME280;795;49.296;11.348;2023-03-21T12:51:23;96252.22;;;22.90;36.47
30339;BME280;795;49.296;11.348;2023-03-21T12:56:56;96281.97;;;23.74;35.31
30339;BME280;795;49.296;11.348;2023-03-21T12:59:37;96243.97;;;22.40;37.28
30339;BME280;795;49.296;11.348;2023-03-21T13:02:35;96253.25;;;21.31;39.23
30339;BME280;795;49.296;11.348;2023-03-21T13:05:31;96278.75;;;21.02;40.09
30339;BME280;795;49.296;11.348;2023-03-21T13:08:24;96227.09;;;20.42;40.31
30339;BME280;795;49.296;11.348;2023-03-21T13:10:55;96269.19;;;22.59;37.56
30339;BME280;795;49.296;11.348;2023-03-21T13:14:00;96262.13;;;23.67;36.02
30339;BME280;795;49.296;11.348;2023-03-21T13:19:47;96225.50;;;25.59;32.63
30339;BME280;795;49.296;11.348;2023-03-21T13:22:28;96227.41;;;23.51;34.91
30339;BME280;795;49.296;11.348;2023-03-21T13:25:16;96194.84;;;23.17;35.84
30339;BME280;795;49.296;11.348;2023-03-21T13:28:02;96250.13;;;22.80;36.71
30339;BME280;795;49.296;11.348;2023-03-21T13:30:31;96201.22;;;22.06;37.77
30339;BME280;795;49.296;11.348;2023-03-21T13:33:14;96218.16;;;22.64;36.71
30339;BME280;795;49.296;11.348;2023-03-21T13:35:53;96206.44;;;22.07;36.88
30339;BME280;795;49.296;11.348;2023-03-21T13:38:27;96236.13;;;22.15;37.80
30339;BME280;795;49.296;11.348;2023-03-21T13:41:04;96240.41;;;22.39;37.66
30339;BME280;795;49.296;11.348;2023-03-21T13:51:50;96223.13;;;22.84;36.83
30339;BME280;795;49.296;11.348;2023-03-21T13:57:06;96225.41;;;24.12;34.15
30339;BME280;795;49.296;11.348;2023-03-21T13:59:43;96200.56;;;24.02;34.37
30339;BME280;795;49.296;11.348;2023-03-21T14:02:31;96164.94;;;23.53;34.91
30339;BME280;795;49.296;11.348;2023-03-21T14:05:17;96218.72;;;22.21;36.86
30339;BME280;795;49.296;11.348;2023-03-21T14:07:57;96139.44;;;21.76;37.42
30339;BME280;795;49.296;11.348;2023-03-21T14:10:46;96144.06;;;22.37;35.89
30339;BME280;795;49.296;11.348;2023-03-21T14:13:22;96182.38;;;22.37;36.42
30339;BME280;795;49.296;11.348;2023-03-21T14:15:58;96202.19;;;22.28;36.90
30339;BME280;795;49.296;11.348;2023-03-21T14:18:27;96129.28;;;21.32;37.64
30339;BME280;795;49.296;11.348;2023-03-21T14:21:29;96151.53;;;21.12;37.55
30339;BME280;795;49.296;11.348;2023-03-21T14:24:13;96194.91;;;21.77;37.44
30339;BME280;795;49.296;11.348;2023-03-21T14:26:47;96198.75;;;21.25;38.63
30339;BME280;795;49.296;11.348;2023-03-21T14:29:31;96148.75;;;19.97;39.77
30339;BME280;795;49.296;11.348;2023-03-21T14:32:01;96169.00;;;21.00;39.05
30339;BME280;795;49.296;11.348;2023-03-21T14:34:34;96201.97;;;20.75;39.96
30339;BME280;795;49.296;11.348;2023-03-21T14:37:06;96203.50;;;20.36;40.82
30339;BME280;795;49.296;11.348;2023-03-21T14:39:33;96148.75;;;19.97;41.66
30339;BME280;795;49.296;11.348;2023-03-21T14:42:11;96129.31;;;19.34;41.30
30339;BME280;795;49.296;11.348;2023-03-21T14:44:47;96150.00;;;19.41;41.33
30339;BME280;795;49.296;11.348;2023-03-21T14:47:28;96177.66;;;19.20;42.53
30339;BME280;795;49.296;11.348;2023-03-21T14:49:58;96187.38;;;18.55;43.17
30339;BME280;795;49.296;11.348;2023-03-21T14:52:32;96088.97;;;17.79;43.54
30339;BME280;795;49.296;11.348;2023-03-21T14:55:04;96176.88;;;18.34;44.87
30339;BME280;795;49.296;11.348;2023-03-21T14:57:37;96151.25;;;17.74;45.11
30339;BME280;795;49.296;11.348;2023-03-21T15:00:16;96122.13;;;17.50;45.12
30339;BME280;795;49.296;11.348;2023-03-21T15:02:44;96138.75;;;17.29;45.78
30339;BME280;795;49.296;11.348;2023-03-21T15:05:28;96178.50;;;17.54;46.67
30339;BME280;795;49.296;11.348;2023-03-21T15:08:20;96174.75;;;17.55;47.47
30339;BME280;795;49.296;11.348;2023-03-21T15:11:06;96173.16;;;17.35;47.45
30339;BME280;795;49.296;11.348;2023-03-21T15:13:49;96172.34;;;17.34;47.78
30339;BME280;795;49.296;11.348;2023-03-21T15:16:21;96176.84;;;17.47;48.04
30339;BME280;795;49.296;11.348;2023-03-21T15:18:50;96109.09;;;16.96;48.42
30339;BME280;795;49.296;11.348;2023-03-21T15:21:27;96119.28;;;17.00;48.61